Brno, Czech Republic

12:56 PM CET on February 06, 2016 (GMT +0100)
Turany | | Change Station
CLOSE
Current Station
Airport
Location: Brno,
Elevation: 807 ft
Nearby Weather Stations

Elev 807 ft 49.15 °N, 16.69 °E | Updated 26 minutes ago

Clear
Clear
48 °F
Feels Like 48 °F
N
9
Wind Variable Wind from SE

Today
High -- | Low -- °F
--% Chance of Precip.
Yesterday
High -- | Low -- °F
Precip. -- in
Pressure 30.21 in
Visibility -9999.0 miles
Clouds
Dew Point 37 °F
Humidity 66%
Rainfall 0.00 in
Snow Depth Not available.
7:17 AM 4:57 PM
Waning Crescent, 6% visible
METAR LKTB 061130Z 14008KT 120V180 CAVOK 09/03 Q1023 NOSIG
Pressure 30.21 in
Visibility -9999.0 miles
Clouds
Dew Point 37 °F
Humidity 66%
Rainfall 0.00 in
Snow Depth Not available.
7:17 AM 4:57 PM
Waning Crescent, 6% visible
METAR LKTB 061130Z 14008KT 120V180 CAVOK 09/03 Q1023 NOSIG

10-Day Weather Forecast

Almanac

Astronomy

Feb. 06, 2016 Rise Set
Actual Time
Civil Twilight
Nautical Twilight
Astronomical Twilight
Moon
Length of Visible Light
Length of Day
Tomorrow will be .
, % of the Moon is Illuminated

Today's Extremes

Country Highs Country Lows

Community

WunderPhotos

Upload Photos

1,890,944 photos uploaded!

WunderBlog® & News

Nearby

Air Quality

  Air Quality AQ Index Pollutant
Not available.

Snow Depth

Station Depth Elevation

Earthquake Activity

City Distance Mag. Time & Date
Minimum magnitude displayed is 2.5.

Coastal Water Temperatures

Place Temperature

Stations

Nearby Weather Stations

Station Location Temp. Windchill Dew Point Humidity Wind Precip. Elev Updated Type